createdAt,value
2019-05-15T00:02:19.823Z,2.50
2019-05-15T00:04:53.076Z,2.67
2019-05-15T00:07:23.426Z,2.90
2019-05-15T00:09:53.789Z,2.63
2019-05-15T00:12:28.479Z,3.17
2019-05-15T00:15:01.124Z,2.90
2019-05-15T00:17:31.440Z,2.67
2019-05-15T00:20:02.106Z,2.77
2019-05-15T00:22:32.374Z,2.80
2019-05-15T00:25:08.997Z,2.90
2019-05-15T00:27:39.061Z,2.80
2019-05-15T00:30:13.113Z,2.80
2019-05-15T00:32:43.419Z,2.73
2019-05-15T00:35:14.070Z,3.00
2019-05-15T00:37:44.683Z,2.87
2019-05-15T00:40:15.236Z,2.90
2019-05-15T00:42:48.617Z,2.87
2019-05-15T00:45:18.735Z,3.00
2019-05-15T00:47:49.388Z,2.77
2019-05-15T00:50:20.757Z,2.93
2019-05-15T00:52:52.667Z,2.90
2019-05-15T00:55:23.330Z,2.93
2019-05-15T00:57:54.754Z,3.00
2019-05-15T01:00:40.590Z,2.93
2019-05-15T01:03:12.301Z,2.90
2019-05-15T01:05:43.326Z,2.57
2019-05-15T01:08:13.609Z,2.90
2019-05-15T01:10:43.996Z,3.00
2019-05-15T01:13:14.273Z,3.03
2019-05-15T01:15:44.698Z,3.33
2019-05-15T01:18:15.840Z,2.90
2019-05-15T01:20:46.270Z,3.00
2019-05-15T01:23:18.734Z,3.23
2019-05-15T01:25:49.381Z,3.10
2019-05-15T01:28:38.568Z,3.00
2019-05-15T01:31:08.842Z,2.73
2019-05-15T01:33:39.590Z,3.30
2019-05-15T01:36:11.124Z,3.07
2019-05-15T01:38:42.214Z,3.00
2019-05-15T01:41:13.867Z,3.20
2019-05-15T01:43:44.110Z,3.10
2019-05-15T01:46:14.750Z,3.60
2019-05-15T01:48:45.553Z,2.97
2019-05-15T01:51:18.354Z,2.80
2019-05-15T01:53:48.223Z,3.30
2019-05-15T01:56:18.935Z,3.10
2019-05-15T01:58:49.367Z,2.83
2019-05-15T02:01:19.715Z,3.37
2019-05-15T02:03:50.007Z,3.00
2019-05-15T02:06:20.700Z,3.00
2019-05-15T02:08:51.385Z,3.20
2019-05-15T02:11:22.015Z,3.40
2019-05-15T02:13:53.621Z,3.00
2019-05-15T02:16:23.892Z,2.97
2019-05-15T02:18:58.250Z,3.20
2019-05-15T02:21:29.040Z,2.90
2019-05-15T02:23:59.735Z,2.90
2019-05-15T02:26:30.762Z,3.23
2019-05-15T02:29:01.667Z,3.30
2019-05-15T02:31:32.217Z,2.90
2019-05-15T02:34:02.520Z,2.80
2019-05-15T02:36:32.884Z,3.23
2019-05-15T02:39:04.515Z,3.00
2019-05-15T02:41:34.797Z,2.90
2019-05-15T02:44:05.414Z,3.20
2019-05-15T02:46:39.219Z,3.10
2019-05-15T02:49:09.127Z,3.20
2019-05-15T02:51:40.225Z,3.00
2019-05-15T02:54:10.771Z,3.83
2019-05-15T02:56:41.076Z,3.27
2019-05-15T02:59:11.402Z,3.20
2019-05-15T03:01:42.018Z,2.90
2019-05-15T03:04:12.704Z,2.90
2019-05-15T03:06:42.980Z,2.93
2019-05-15T03:09:13.315Z,3.30
2019-05-15T03:11:43.629Z,3.30
2019-05-15T03:14:13.908Z,3.03
2019-05-15T03:16:45.781Z,3.00
2019-05-15T03:19:18.716Z,3.00
2019-05-15T03:21:49.691Z,2.93
2019-05-15T03:24:20.470Z,3.30
2019-05-15T03:26:52.186Z,3.13
2019-05-15T03:29:22.477Z,3.50
2019-05-15T03:32:13.476Z,3.13
2019-05-15T03:34:30.991Z,3.40
2019-05-15T03:37:03.521Z,3.13
2019-05-15T03:39:31.806Z,3.10
2019-05-15T03:42:02.070Z,3.57
2019-05-15T03:44:32.332Z,2.97
2019-05-15T03:47:02.665Z,3.30
2019-05-15T03:49:32.933Z,3.20
2019-05-15T03:52:10.003Z,2.87
2019-05-15T03:54:40.179Z,3.00
2019-05-15T03:57:10.454Z,3.10
2019-05-15T03:59:40.784Z,2.90
2019-05-15T04:02:11.404Z,2.67
2019-05-15T04:04:41.706Z,2.63
2019-05-15T04:07:14.122Z,2.83
2019-05-15T04:09:44.377Z,2.60
2019-05-15T04:12:14.665Z,3.00
2019-05-15T04:14:45.085Z,2.70
2019-05-15T04:17:19.537Z,2.60
2019-05-15T04:19:49.715Z,2.50
2019-05-15T04:22:21.288Z,2.70
2019-05-15T04:24:52.535Z,2.63
2019-05-15T04:27:24.227Z,2.80
2019-05-15T04:29:54.787Z,2.57
2019-05-15T04:32:28.609Z,2.30
2019-05-15T04:34:59.423Z,2.20
2019-05-15T04:37:30.030Z,2.50
2019-05-15T04:40:00.785Z,2.53
2019-05-15T04:42:31.550Z,2.60
2019-05-15T04:45:01.849Z,2.50
2019-05-15T04:47:35.419Z,2.10
2019-05-15T04:50:08.963Z,1.83
2019-05-15T04:52:42.421Z,1.83
2019-05-15T04:55:10.864Z,2.17
2019-05-15T04:57:41.230Z,2.30
2019-05-15T05:00:13.222Z,2.35
2019-05-15T05:02:43.551Z,2.07
2019-05-15T05:05:14.963Z,3.72
2019-05-15T05:07:45.319Z,2.10
2019-05-15T05:10:19.498Z,1.92
2019-05-15T05:12:50.815Z,1.95
2019-05-15T05:15:23.348Z,3.58
2019-05-15T05:17:54.063Z,2.10
2019-05-15T05:20:25.051Z,2.12
2019-05-15T05:22:55.343Z,2.15
2019-05-15T05:25:27.999Z,2.10
2019-05-15T05:27:58.101Z,2.47
2019-05-15T05:30:29.870Z,2.10
2019-05-15T05:33:00.192Z,2.12
2019-05-15T05:35:30.616Z,2.27
2019-05-15T05:38:00.963Z,2.02
2019-05-15T05:40:31.274Z,2.00
2019-05-15T05:43:01.607Z,2.30
2019-05-15T05:45:32.902Z,1.85
2019-05-15T05:48:03.200Z,2.37
2019-05-15T05:50:44.207Z,2.00
2019-05-15T05:53:13.784Z,1.87
2019-05-15T05:55:44.087Z,2.15
2019-05-15T05:58:14.497Z,1.57
2019-05-15T06:00:48.898Z,1.90
2019-05-15T06:03:19.840Z,1.82
2019-05-15T06:05:52.569Z,1.90
2019-05-15T06:08:22.842Z,1.90
2019-05-15T06:10:53.145Z,1.82
2019-05-15T06:13:25.603Z,1.85
2019-05-15T06:15:55.892Z,1.72
2019-05-15T06:18:28.123Z,1.70
2019-05-15T06:20:58.842Z,1.65
2019-05-15T06:23:35.109Z,1.45
2019-05-15T06:26:01.324Z,1.60
2019-05-15T06:28:33.072Z,1.60
2019-05-15T06:31:08.564Z,1.60
2019-05-15T06:33:38.662Z,1.50
2019-05-15T06:36:09.300Z,1.37
2019-05-15T06:38:39.697Z,1.70
2019-05-15T06:41:10.037Z,1.70
2019-05-15T06:43:40.331Z,1.60
2019-05-15T06:46:12.929Z,1.55
2019-05-15T06:48:45.768Z,1.62
2019-05-15T06:51:18.217Z,1.72
2019-05-15T06:53:50.781Z,1.90
2019-05-15T06:56:21.042Z,1.80
2019-05-15T06:58:51.452Z,2.05
2019-05-15T07:01:21.842Z,1.62
2019-05-15T07:03:52.634Z,1.52
2019-05-15T07:06:22.967Z,1.35
2019-05-15T07:08:53.324Z,1.47
2019-05-15T07:11:23.793Z,1.35
2019-05-15T07:13:54.139Z,1.40
2019-05-15T07:16:24.872Z,2.35
2019-05-15T07:18:58.864Z,1.45
2019-05-15T07:21:31.538Z,1.25
2019-05-15T07:24:01.855Z,1.30
2019-05-15T07:26:31.983Z,1.32
2019-05-15T07:29:07.774Z,1.35
2019-05-15T07:31:38.457Z,1.52
2019-05-15T07:34:09.004Z,1.25
2019-05-15T07:36:39.373Z,1.25
2019-05-15T07:39:09.953Z,1.02
2019-05-15T07:41:40.286Z,1.20
2019-05-15T07:44:10.867Z,1.15
2019-05-15T07:46:43.515Z,1.10
2019-05-15T07:49:13.796Z,1.20
2019-05-15T07:51:48.836Z,1.10
2019-05-15T07:54:18.947Z,1.02
2019-05-15T07:56:49.669Z,1.20
2019-05-15T07:59:20.336Z,0.95
2019-05-15T08:01:50.601Z,1.15
2019-05-15T08:04:28.719Z,1.17
2019-05-15T08:06:59.291Z,1.30
2019-05-15T08:09:30.505Z,1.20
2019-05-15T08:12:05.316Z,1.20
2019-05-15T08:14:38.690Z,1.30
2019-05-15T08:17:09.878Z,1.12
2019-05-15T08:19:40.207Z,1.00
2019-05-15T08:22:11.056Z,1.10
2019-05-15T08:24:41.401Z,1.10
2019-05-15T08:27:15.108Z,1.02
2019-05-15T08:29:45.420Z,1.00
2019-05-15T08:32:15.770Z,0.90
2019-05-15T08:34:48.041Z,1.00
2019-05-15T08:37:18.421Z,1.10
2019-05-15T08:39:49.347Z,1.10
2019-05-15T08:42:20.286Z,1.00
2019-05-15T08:44:50.624Z,1.17
2019-05-15T08:47:21.394Z,1.20
2019-05-15T08:49:57.970Z,1.25
2019-05-15T08:52:30.059Z,1.07
2019-05-15T08:55:00.433Z,1.07
2019-05-15T08:57:30.667Z,1.10
2019-05-15T09:00:02.728Z,1.30
2019-05-15T09:02:33.447Z,1.22
2019-05-15T09:05:04.414Z,1.20
2019-05-15T09:07:34.788Z,0.95
2019-05-15T09:10:09.039Z,1.17
2019-05-15T09:12:40.607Z,1.12
2019-05-15T09:15:19.720Z,1.20
2019-05-15T09:17:50.059Z,1.10
2019-05-15T09:20:20.571Z,1.05
2019-05-15T09:22:53.954Z,1.10
2019-05-15T09:25:24.324Z,0.80
2019-05-15T09:27:54.921Z,1.02
2019-05-15T09:30:25.265Z,1.10
2019-05-15T09:32:58.827Z,0.90
2019-05-15T09:35:29.289Z,0.90
2019-05-15T09:38:00.068Z,0.90
2019-05-15T09:40:45.216Z,1.00
2019-05-15T09:43:03.985Z,1.17
2019-05-15T09:45:34.685Z,1.15
2019-05-15T09:48:05.260Z,1.00
2019-05-15T09:50:35.926Z,1.10
2019-05-15T09:53:09.125Z,1.00
2019-05-15T09:55:39.001Z,1.05
2019-05-15T09:58:09.300Z,1.10
2019-05-15T10:00:40.041Z,0.93
2019-05-15T10:03:10.334Z,1.00
2019-05-15T10:05:42.973Z,1.00
2019-05-15T10:08:13.628Z,1.10
2019-05-15T10:10:44.300Z,1.10
2019-05-15T10:13:21.729Z,1.10
2019-05-15T10:15:53.339Z,0.95
2019-05-15T10:18:31.244Z,0.95
2019-05-15T10:21:04.590Z,1.10
2019-05-15T10:23:40.062Z,0.82
2019-05-15T10:26:13.847Z,1.17
2019-05-15T10:28:42.064Z,1.00
2019-05-15T10:31:15.871Z,0.80
2019-05-15T10:33:49.156Z,0.90
2019-05-15T10:36:24.494Z,0.85
2019-05-15T10:38:59.235Z,1.05
2019-05-15T10:41:29.761Z,1.00
2019-05-15T10:44:13.431Z,1.00
2019-05-15T10:46:48.390Z,0.93
2019-05-15T10:49:19.092Z,1.20
2019-05-15T10:51:50.733Z,0.90
2019-05-15T10:54:22.558Z,0.80
2019-05-15T10:57:00.417Z,0.82
2019-05-15T10:59:28.327Z,1.27
2019-05-15T11:02:00.250Z,0.85
2019-05-15T11:04:31.000Z,1.05
2019-05-15T11:07:02.460Z,1.05
2019-05-15T11:09:37.538Z,1.10
2019-05-15T11:12:09.558Z,1.00
2019-05-15T11:14:40.018Z,1.10
2019-05-15T11:17:10.476Z,0.82
2019-05-15T11:19:41.008Z,1.00
2019-05-15T11:22:19.175Z,0.98
2019-05-15T11:24:54.911Z,0.90
2019-05-15T11:27:27.966Z,0.85
2019-05-15T11:30:00.215Z,0.90
2019-05-15T11:32:30.511Z,1.00
2019-05-15T11:35:04.130Z,0.90
2019-05-15T11:37:34.478Z,0.82
2019-05-15T11:40:05.434Z,0.90
2019-05-15T11:42:36.163Z,0.85
2019-05-15T11:45:15.006Z,1.00
2019-05-15T11:47:45.453Z,0.90
2019-05-15T11:50:20.548Z,0.90
2019-05-15T11:52:50.379Z,0.85
2019-05-15T11:55:21.146Z,0.90
2019-05-15T11:57:55.720Z,0.90
2019-05-15T12:00:30.006Z,0.93
2019-05-15T12:02:59.223Z,1.30
2019-05-15T12:05:29.513Z,1.00
2019-05-15T12:07:59.965Z,1.00
2019-05-15T12:10:30.332Z,0.95
2019-05-15T12:13:05.131Z,1.12
2019-05-15T12:15:35.532Z,0.80
2019-05-15T12:18:08.486Z,1.00
2019-05-15T12:20:48.904Z,0.70
2019-05-15T12:23:19.278Z,0.93
2019-05-15T12:25:53.193Z,0.90
2019-05-15T12:28:24.367Z,0.90
2019-05-15T12:30:54.665Z,0.80
2019-05-15T12:33:24.964Z,1.20
2019-05-15T12:35:55.687Z,0.90
2019-05-15T12:38:29.284Z,0.95
2019-05-15T13:01:25.118Z,1.10
2019-05-15T13:03:57.950Z,1.00
2019-05-15T13:06:28.766Z,1.00
2019-05-15T13:09:02.245Z,0.85
2019-05-15T13:11:32.650Z,0.85
2019-05-15T13:14:02.974Z,1.00
2019-05-15T13:16:34.270Z,0.75
2019-05-15T13:19:08.323Z,0.82
2019-05-15T13:21:40.379Z,0.85
2019-05-15T13:24:10.985Z,0.90
2019-05-15T13:26:42.845Z,0.90
2019-05-15T13:29:13.162Z,1.00
2019-05-15T13:31:43.484Z,1.00
2019-05-15T13:34:19.737Z,0.90
2019-05-15T13:36:49.527Z,0.85
2019-05-15T13:39:20.237Z,0.80
2019-05-15T13:41:53.641Z,0.88
2019-05-15T13:44:24.115Z,0.90
2019-05-15T13:46:58.175Z,0.93
2019-05-15T13:49:29.382Z,0.90
2019-05-15T13:52:02.512Z,0.98
2019-05-15T13:54:37.947Z,1.00
2019-05-15T13:57:10.806Z,0.78
2019-05-15T13:59:41.650Z,0.80
2019-05-15T14:02:11.974Z,1.00
2019-05-15T14:04:42.303Z,0.90
2019-05-15T14:07:15.067Z,0.90
2019-05-15T14:09:59.881Z,0.80
2019-05-15T14:12:29.516Z,0.85
2019-05-15T14:14:59.990Z,0.80
2019-05-15T14:17:32.931Z,0.85
2019-05-15T14:20:03.820Z,0.82
2019-05-15T14:22:35.651Z,0.80
2019-05-15T14:25:08.191Z,0.90
2019-05-15T14:27:39.946Z,0.98
2019-05-15T14:30:23.481Z,0.90
2019-05-15T14:32:54.184Z,0.70
2019-05-15T14:35:24.763Z,1.00
2019-05-15T14:38:03.721Z,0.90
2019-05-15T14:40:29.942Z,0.93
2019-05-15T14:43:03.250Z,0.88
2019-05-15T14:45:34.929Z,0.80
2019-05-15T14:48:05.578Z,0.90
2019-05-15T14:50:41.739Z,0.75
2019-05-15T14:53:14.425Z,1.20
2019-05-15T14:55:44.981Z,0.70
2019-05-15T14:58:15.609Z,0.75
2019-05-15T15:00:49.667Z,0.90
2019-05-15T15:03:24.523Z,0.70
2019-05-15T15:05:58.196Z,0.90
2019-05-15T15:08:29.278Z,1.15
2019-05-15T15:11:00.383Z,0.72
2019-05-15T15:13:31.308Z,0.78
2019-05-15T15:16:02.355Z,0.90
2019-05-15T15:18:34.552Z,0.90
2019-05-15T15:21:04.875Z,0.78
2019-05-15T15:23:38.737Z,1.00
2019-05-15T15:26:09.060Z,1.00
2019-05-15T15:28:40.223Z,0.90
2019-05-15T15:31:18.945Z,1.10
2019-05-15T15:33:51.532Z,1.20
2019-05-15T15:36:21.847Z,0.93
2019-05-15T15:38:52.759Z,1.10
2019-05-15T15:41:23.947Z,1.20
2019-05-15T15:43:54.678Z,1.32
2019-05-15T15:46:25.025Z,1.27
2019-05-15T15:48:55.129Z,1.02
2019-05-15T15:51:28.587Z,1.30
2019-05-15T15:53:59.079Z,1.60
2019-05-15T15:56:29.427Z,1.12
2019-05-15T15:58:59.828Z,1.20
2019-05-15T16:01:31.357Z,1.05
2019-05-15T16:04:03.157Z,0.95
2019-05-15T16:06:33.492Z,1.00
2019-05-15T16:09:08.690Z,1.30
2019-05-15T16:11:39.681Z,1.27
2019-05-15T16:14:11.498Z,1.15
2019-05-15T16:16:41.854Z,1.22
2019-05-15T16:19:12.151Z,1.22
2019-05-15T16:21:42.815Z,1.10
2019-05-15T16:24:17.758Z,0.98
2019-05-15T16:26:49.657Z,1.45
2019-05-15T16:29:20.492Z,1.00
2019-05-15T16:31:53.603Z,1.30
2019-05-15T16:34:28.243Z,1.20
2019-05-15T16:36:58.549Z,1.20
2019-05-15T16:39:31.689Z,1.25
2019-05-15T16:42:06.283Z,1.35
2019-05-15T16:44:38.395Z,1.30
2019-05-15T16:47:08.964Z,1.20
2019-05-15T16:49:39.444Z,1.20
2019-05-15T16:52:10.037Z,1.20
2019-05-15T16:54:40.326Z,1.22
2019-05-15T16:57:15.287Z,1.17
2019-05-15T16:59:47.881Z,1.30
2019-05-15T17:02:18.860Z,1.50
2019-05-15T17:04:49.600Z,1.50
2019-05-15T17:07:20.046Z,1.20
2019-05-15T17:10:00.902Z,1.22
2019-05-15T17:12:31.334Z,1.40
2019-05-15T17:15:01.668Z,1.30
2019-05-15T17:17:33.621Z,1.40
2019-05-15T17:20:04.468Z,1.40
2019-05-15T17:22:34.765Z,1.40
2019-05-15T17:25:09.221Z,1.15
2019-05-15T17:27:40.759Z,1.10
2019-05-15T17:30:11.103Z,1.22
2019-05-15T17:32:41.459Z,1.30
2019-05-15T17:35:12.129Z,1.20
2019-05-15T17:37:44.184Z,1.40
2019-05-15T17:40:14.988Z,1.10
2019-05-15T17:42:45.666Z,1.40
2019-05-15T17:45:16.330Z,1.27
2019-05-15T17:47:48.798Z,1.40
2019-05-15T17:50:22.806Z,1.30
2019-05-15T17:52:53.103Z,1.30
2019-05-15T17:55:23.909Z,1.35
2019-05-15T17:57:58.328Z,1.30
2019-05-15T18:00:28.622Z,1.17
2019-05-15T18:02:59.114Z,1.20
2019-05-15T18:05:31.084Z,1.45
2019-05-15T18:08:01.365Z,1.25
2019-05-15T18:10:31.899Z,1.10
2019-05-15T18:13:04.700Z,1.20
2019-05-15T18:15:35.195Z,1.20
2019-05-15T18:18:09.153Z,1.30
2019-05-15T18:20:40.793Z,1.20
2019-05-15T18:23:11.092Z,1.30
2019-05-15T18:25:41.401Z,1.37
2019-05-15T18:28:11.723Z,1.42
2019-05-15T18:30:41.952Z,1.30
2019-05-15T18:33:12.489Z,1.42
2019-05-15T18:35:44.269Z,1.27
2019-05-15T18:38:14.559Z,1.30
2019-05-15T18:40:44.864Z,1.27
2019-05-15T18:43:15.200Z,1.10
2019-05-15T18:45:47.766Z,1.20
2019-05-15T18:48:18.534Z,1.30
2019-05-15T18:50:49.101Z,1.35
2019-05-15T18:53:21.737Z,1.20
2019-05-15T18:55:53.691Z,1.50
2019-05-15T18:58:24.304Z,1.30
2019-05-15T19:00:54.843Z,1.50
2019-05-15T19:03:38.488Z,1.40
2019-05-15T19:06:09.017Z,1.70
2019-05-15T19:08:42.639Z,1.47
2019-05-15T19:11:13.084Z,1.60
2019-05-15T19:13:48.151Z,1.62
2019-05-15T19:16:18.546Z,1.80
2019-05-15T19:18:49.039Z,1.60
2019-05-15T19:21:19.399Z,2.05
2019-05-15T19:23:49.794Z,1.95
2019-05-15T19:26:19.964Z,1.60
2019-05-15T19:28:50.766Z,1.87
2019-05-15T19:31:26.764Z,1.50
2019-05-15T19:33:53.119Z,1.80
2019-05-15T19:36:23.647Z,1.90
2019-05-15T19:38:54.342Z,2.08
2019-05-15T19:41:24.707Z,2.08
2019-05-15T19:43:58.012Z,1.93
2019-05-15T19:46:28.276Z,1.98
2019-05-15T19:49:03.292Z,2.60
2019-05-15T19:51:38.145Z,2.65
2019-05-15T19:54:09.178Z,1.98
2019-05-15T19:56:43.312Z,2.05
2019-05-15T19:59:13.609Z,1.95
2019-05-15T20:01:45.505Z,2.30
2019-05-15T20:04:16.039Z,2.10
2019-05-15T20:06:48.065Z,2.15
2019-05-15T20:09:18.417Z,2.10
2019-05-15T20:12:00.391Z,2.05
2019-05-15T20:14:30.755Z,2.20
2019-05-15T20:17:01.408Z,2.20
2019-05-15T20:19:31.709Z,2.27
2019-05-15T20:22:02.029Z,2.20
2019-05-15T20:24:33.714Z,2.20
2019-05-15T20:27:04.124Z,2.27
2019-05-15T20:29:34.615Z,2.23
2019-05-15T20:32:06.109Z,2.00
2019-05-15T20:34:38.351Z,2.33
2019-05-15T20:37:09.071Z,2.40
2019-05-15T20:39:39.418Z,2.13
2019-05-15T20:42:10.006Z,2.50
2019-05-15T20:44:40.327Z,2.13
2019-05-15T20:47:12.512Z,2.10
2019-05-15T20:49:43.113Z,2.10
2019-05-15T20:52:18.310Z,1.97
2019-05-15T20:54:48.097Z,2.37
2019-05-15T20:57:20.077Z,2.17
2019-05-15T20:59:50.424Z,2.40
2019-05-15T21:02:21.322Z,2.53
2019-05-15T21:04:52.675Z,2.40
2019-05-15T21:07:35.796Z,2.60
2019-05-15T21:09:56.022Z,2.50
2019-05-15T21:12:29.317Z,2.80
2019-05-15T21:14:58.325Z,2.60
2019-05-15T21:17:28.650Z,2.40
2019-05-15T21:20:01.642Z,2.47
2019-05-15T21:22:33.878Z,2.43
2019-05-15T21:25:08.097Z,2.83
2019-05-15T21:27:42.291Z,2.73
2019-05-15T21:30:11.998Z,2.37
2019-05-15T21:32:42.599Z,2.60
2019-05-15T21:35:12.894Z,2.50
2019-05-15T21:37:43.471Z,2.53
2019-05-15T21:40:14.333Z,2.87
2019-05-15T21:42:44.656Z,2.77
2019-05-15T21:45:18.458Z,2.70
2019-05-15T21:47:48.810Z,2.40
2019-05-15T21:50:19.543Z,2.50
2019-05-15T21:52:51.234Z,2.60
2019-05-15T21:55:21.546Z,2.87
2019-05-15T21:57:52.348Z,2.93
2019-05-15T22:00:31.104Z,3.10
2019-05-15T22:03:01.401Z,3.00
2019-05-15T22:05:31.794Z,2.70
2019-05-15T22:08:03.154Z,2.83
2019-05-15T22:10:34.266Z,2.93
2019-05-15T22:13:05.302Z,2.80
2019-05-15T22:15:35.670Z,2.90
2019-05-15T22:18:08.691Z,2.97
2019-05-15T22:20:40.187Z,2.80
2019-05-15T22:23:10.530Z,3.10
2019-05-15T22:25:43.676Z,2.87
2019-05-15T22:28:14.023Z,2.90
2019-05-15T22:30:44.425Z,2.77
2019-05-15T22:33:14.725Z,3.13
2019-05-15T22:35:48.655Z,3.03
2019-05-15T22:38:18.164Z,2.90
2019-05-15T22:40:49.165Z,2.90
2019-05-15T22:43:20.251Z,3.20
2019-05-15T22:45:50.605Z,3.20
2019-05-15T22:48:20.855Z,3.30
2019-05-15T22:50:51.156Z,2.90
2019-05-15T22:53:21.874Z,2.90
2019-05-15T22:55:53.185Z,3.10
2019-05-15T22:58:23.467Z,3.10
2019-05-15T23:00:53.834Z,3.10
2019-05-15T23:03:28.181Z,3.10
2019-05-15T23:05:58.695Z,3.10
2019-05-15T23:08:29.265Z,3.40
2019-05-15T23:11:00.246Z,3.07
2019-05-15T23:13:30.714Z,3.43
2019-05-15T23:16:01.043Z,3.47
2019-05-15T23:18:32.375Z,3.30
2019-05-15T23:21:02.612Z,3.63
2019-05-15T23:23:33.004Z,3.73
2019-05-15T23:26:07.657Z,3.20
2019-05-15T23:28:38.667Z,3.07
2019-05-15T23:31:09.479Z,3.10
2019-05-15T23:33:39.791Z,3.40
2019-05-15T23:36:13.197Z,3.20
2019-05-15T23:38:47.779Z,3.43
2019-05-15T23:41:19.102Z,3.30
2019-05-15T23:43:50.543Z,3.43
2019-05-15T23:46:21.532Z,3.57
2019-05-15T23:48:51.835Z,3.40
2019-05-15T23:51:22.478Z,3.30
2019-05-15T23:53:52.858Z,3.60
2019-05-15T23:56:23.161Z,3.33
2019-05-15T23:58:53.822Z,3.43
